createdAt,value
2017-03-27T00:00:03.778Z,11.95
2017-03-27T00:00:44.381Z,11.94
2017-03-27T00:01:24.809Z,12.02
2017-03-27T00:02:05.288Z,12.05
2017-03-27T00:02:45.803Z,11.96
2017-03-27T00:03:26.262Z,11.95
2017-03-27T00:04:06.803Z,11.94
2017-03-27T00:04:47.283Z,11.88
2017-03-27T00:05:27.778Z,11.86
2017-03-27T00:06:08.215Z,11.75
2017-03-27T00:06:48.713Z,11.82
2017-03-27T00:07:29.210Z,11.83
2017-03-27T00:08:09.829Z,11.85
2017-03-27T00:08:50.272Z,11.91
2017-03-27T00:09:30.780Z,11.85
2017-03-27T00:10:11.264Z,11.95
2017-03-27T00:10:51.764Z,12.04
2017-03-27T00:11:32.254Z,11.91
2017-03-27T00:12:12.710Z,11.86
2017-03-27T00:12:53.251Z,11.75
2017-03-27T00:13:33.943Z,11.76
2017-03-27T00:14:14.526Z,11.67
2017-03-27T00:14:55.047Z,11.6
2017-03-27T00:15:35.747Z,11.64
2017-03-27T00:16:16.165Z,11.7
2017-03-27T00:16:56.671Z,11.62
2017-03-27T00:17:37.303Z,11.7
2017-03-27T00:18:17.775Z,11.61
2017-03-27T00:18:58.258Z,11.65
2017-03-27T00:19:38.725Z,11.65
2017-03-27T00:20:19.217Z,11.64
2017-03-27T00:20:59.671Z,11.58
2017-03-27T00:21:40.150Z,11.52
2017-03-27T00:22:20.713Z,11.46
2017-03-27T00:23:01.160Z,11.54
2017-03-27T00:23:41.650Z,11.51
2017-03-27T00:24:22.236Z,11.64
2017-03-27T00:25:02.620Z,11.55
2017-03-27T00:25:43.130Z,11.69
2017-03-27T00:26:23.828Z,11.67
2017-03-27T00:27:04.371Z,11.6
2017-03-27T00:27:44.851Z,11.65
2017-03-27T00:28:25.365Z,11.69
2017-03-27T00:29:05.827Z,11.65
2017-03-27T00:29:46.361Z,11.69
2017-03-27T00:30:26.910Z,11.6
2017-03-27T00:31:07.508Z,11.47
2017-03-27T00:31:47.979Z,11.51
2017-03-27T00:32:28.660Z,11.33
2017-03-27T00:33:09.146Z,11.36
2017-03-27T00:33:49.601Z,11.39
2017-03-27T00:34:30.201Z,11.46
2017-03-27T00:35:10.732Z,11.54
2017-03-27T00:35:51.213Z,11.55
2017-03-27T00:36:31.700Z,11.58
2017-03-27T00:37:12.177Z,11.69
2017-03-27T00:37:52.660Z,11.69
2017-03-27T00:38:33.205Z,11.7
2017-03-27T00:39:13.710Z,11.69
2017-03-27T00:39:54.208Z,11.79
2017-03-27T00:40:34.713Z,11.8
2017-03-27T00:41:15.213Z,11.7
2017-03-27T00:41:55.823Z,11.69
2017-03-27T00:42:36.172Z,11.7
2017-03-27T00:43:16.692Z,11.79
2017-03-27T00:43:57.166Z,11.78
2017-03-27T00:44:37.666Z,11.75
2017-03-27T00:45:18.181Z,11.64
2017-03-27T00:45:58.659Z,11.57
2017-03-27T00:46:39.190Z,11.61
2017-03-27T00:47:19.750Z,11.76
2017-03-27T00:48:00.407Z,11.65
2017-03-27T00:48:40.922Z,11.54
2017-03-27T00:49:21.467Z,11.47
2017-03-27T00:50:01.857Z,11.33
2017-03-27T00:50:42.336Z,11.4
2017-03-27T00:51:22.866Z,11.39
2017-03-27T00:52:03.357Z,11.47
2017-03-27T00:52:43.878Z,11.36
2017-03-27T00:53:24.370Z,11.36
2017-03-27T00:54:04.827Z,11.4
2017-03-27T00:54:45.298Z,11.43
2017-03-27T00:55:25.807Z,11.37
2017-03-27T00:56:06.275Z,11.36
2017-03-27T00:56:46.792Z,11.27
2017-03-27T00:57:27.247Z,11.07
2017-03-27T00:58:07.851Z,11.17
2017-03-27T00:58:48.269Z,11.21
2017-03-27T00:59:28.753Z,11.32
2017-03-27T01:00:09.204Z,11.29
2017-03-27T01:00:49.781Z,11
2017-03-27T01:01:30.230Z,11.14
2017-03-27T01:02:10.777Z,11.21
2017-03-27T01:02:51.250Z,11.29
2017-03-27T01:03:31.725Z,11.35
2017-03-27T01:04:12.347Z,11.4
2017-03-27T01:04:52.799Z,11.43
2017-03-27T01:05:33.269Z,11.46
2017-03-27T01:06:13.767Z,11.46
2017-03-27T01:06:54.347Z,11.39
2017-03-27T01:07:34.809Z,11.29
2017-03-27T01:08:15.326Z,11.32
2017-03-27T01:08:55.808Z,11.22
2017-03-27T01:09:36.329Z,11.35
2017-03-27T01:23:34.024Z,11.32
2017-03-27T01:24:21.884Z,11.27
2017-03-27T01:25:02.352Z,11.28
2017-03-27T01:25:42.832Z,11.33
2017-03-27T01:26:23.365Z,11.32
2017-03-27T01:27:03.875Z,11.17
2017-03-27T01:27:44.376Z,11.1
2017-03-27T01:28:24.895Z,11.19
2017-03-27T01:29:05.277Z,11.19
2017-03-27T01:29:45.833Z,11.28
2017-03-27T01:30:26.325Z,11.29
2017-03-27T01:31:06.786Z,11.21
2017-03-27T01:31:47.473Z,11.18
2017-03-27T01:32:28.087Z,11.21
2017-03-27T01:33:08.586Z,11.15
2017-03-27T01:33:49.087Z,11.18
2017-03-27T01:34:29.649Z,11.27
2017-03-27T01:35:10.087Z,11.24
2017-03-27T01:35:50.576Z,11.17
2017-03-27T01:36:31.090Z,11.11
2017-03-27T01:37:11.536Z,10.99
2017-03-27T01:37:52.031Z,10.97
2017-03-27T01:38:32.632Z,11.07
2017-03-27T01:39:13.093Z,11.07
2017-03-27T01:39:53.639Z,11.09
2017-03-27T01:40:34.151Z,11.04
2017-03-27T01:41:14.624Z,11.14
2017-03-27T01:41:55.090Z,11.22
2017-03-27T01:42:35.635Z,11.21
2017-03-27T01:43:16.058Z,11.17
2017-03-27T01:43:56.587Z,11.19
2017-03-27T01:44:37.052Z,11.22
2017-03-27T01:45:17.538Z,11.1
2017-03-27T01:45:58.007Z,11.22
2017-03-27T01:46:38.567Z,11.24
2017-03-27T01:47:19.084Z,11.07
2017-03-27T01:47:59.553Z,11.17
2017-03-27T01:48:40.089Z,11.15
2017-03-27T01:49:20.552Z,11.24
2017-03-27T01:50:00.994Z,11.18
2017-03-27T01:50:41.503Z,11.14
2017-03-27T01:51:22.029Z,11.07
2017-03-27T01:52:02.475Z,11.09
2017-03-27T01:52:42.964Z,11
2017-03-27T01:53:23.508Z,11.04
2017-03-27T01:54:03.980Z,11.11
2017-03-27T01:54:44.477Z,11.03
2017-03-27T01:55:25.019Z,11.14
2017-03-27T01:56:05.496Z,10.94
2017-03-27T01:56:45.899Z,10.96
2017-03-27T01:57:26.517Z,10.96
2017-03-27T01:58:07.016Z,11.04
2017-03-27T01:58:47.417Z,11.09
2017-03-27T01:59:27.957Z,11.1
2017-03-27T02:00:08.452Z,11.04
2017-03-27T02:00:48.903Z,10.92
2017-03-27T02:01:29.396Z,11.02
2017-03-27T02:02:09.871Z,10.91
2017-03-27T02:02:50.320Z,10.92
2017-03-27T02:03:30.927Z,10.99
2017-03-27T02:04:11.455Z,10.94
2017-03-27T02:04:51.952Z,11
2017-03-27T02:05:32.411Z,10.99
2017-03-27T02:06:12.911Z,11.07
2017-03-27T02:06:53.435Z,11.03
2017-03-27T02:07:33.885Z,11.06
2017-03-27T02:08:14.402Z,11.06
2017-03-27T02:08:54.876Z,10.89
2017-03-27T02:09:35.358Z,10.81
2017-03-27T02:10:15.830Z,10.94
2017-03-27T02:10:56.394Z,10.96
2017-03-27T02:11:36.766Z,10.97
2017-03-27T02:12:17.289Z,11
2017-03-27T02:12:57.764Z,11.02
2017-03-27T02:13:38.292Z,11.03
2017-03-27T02:14:18.906Z,11.11
2017-03-27T02:14:59.471Z,11
2017-03-27T02:15:39.934Z,11.07
2017-03-27T02:16:20.382Z,11
2017-03-27T02:17:00.873Z,11
2017-03-27T02:17:41.322Z,11.09
2017-03-27T02:18:21.844Z,10.99
2017-03-27T02:19:02.344Z,11.06
2017-03-27T02:19:42.849Z,11.04
2017-03-27T02:20:23.301Z,10.96
2017-03-27T02:21:03.930Z,11.09
2017-03-27T02:21:44.277Z,11.09
2017-03-27T02:22:24.831Z,10.96
2017-03-27T02:23:05.322Z,10.96
2017-03-27T02:23:45.825Z,10.89
2017-03-27T02:24:26.361Z,10.94
2017-03-27T02:25:06.861Z,10.92
2017-03-27T02:25:47.324Z,10.94
2017-03-27T02:26:27.841Z,11
2017-03-27T02:27:08.331Z,10.99
2017-03-27T02:27:48.811Z,10.94
2017-03-27T02:28:29.287Z,11
2017-03-27T02:29:09.779Z,10.99
2017-03-27T02:29:50.316Z,10.96
2017-03-27T02:30:30.801Z,11
2017-03-27T02:31:11.311Z,11.03
2017-03-27T02:31:51.773Z,11.06
2017-03-27T02:32:32.308Z,11.11
2017-03-27T02:33:12.832Z,10.97
2017-03-27T02:33:53.299Z,10.99
2017-03-27T02:34:33.866Z,10.81
2017-03-27T02:35:14.298Z,10.7
2017-03-27T02:35:54.761Z,10.71
2017-03-27T02:36:35.253Z,10.82
2017-03-27T02:37:15.762Z,10.7
2017-03-27T02:37:56.274Z,10.79
2017-03-27T02:38:36.778Z,10.81
2017-03-27T02:39:17.262Z,10.84
2017-03-27T02:39:57.821Z,10.73
2017-03-27T02:40:38.323Z,10.59
2017-03-27T02:41:18.763Z,10.55
2017-03-27T02:41:59.363Z,10.53
2017-03-27T02:42:39.750Z,10.34
2017-03-27T02:43:20.287Z,10.51
2017-03-27T02:44:00.813Z,10.55
2017-03-27T02:44:41.343Z,10.48
2017-03-27T02:45:21.776Z,10.44
2017-03-27T02:46:02.296Z,10.52
2017-03-27T02:46:42.785Z,10.61
2017-03-27T02:47:23.266Z,10.48
2017-03-27T02:48:03.799Z,10.53
2017-03-27T02:48:44.271Z,10.51
2017-03-27T02:49:24.811Z,10.61
2017-03-27T02:50:05.281Z,10.63
2017-03-27T02:50:45.763Z,10.63
2017-03-27T02:51:26.242Z,10.6
2017-03-27T02:52:06.724Z,10.52
2017-03-27T02:52:47.212Z,10.67
2017-03-27T02:53:27.696Z,10.61
2017-03-27T02:54:08.241Z,10.63
2017-03-27T02:54:48.702Z,10.59
2017-03-27T02:55:29.145Z,10.63
2017-03-27T02:56:09.661Z,10.7
2017-03-27T02:56:50.179Z,10.68
2017-03-27T02:57:30.701Z,10.74
2017-03-27T02:58:11.220Z,10.71
2017-03-27T02:58:51.675Z,10.66
2017-03-27T02:59:32.114Z,10.64
2017-03-27T03:00:12.613Z,10.71
2017-03-27T03:00:53.104Z,10.71
2017-03-27T03:01:33.610Z,10.71
2017-03-27T03:02:14.071Z,10.63
2017-03-27T03:02:54.614Z,10.55
2017-03-27T03:03:35.070Z,10.52
2017-03-27T03:04:15.519Z,10.61
2017-03-27T03:04:56.071Z,10.68
2017-03-27T03:05:36.644Z,10.6
2017-03-27T03:06:17.060Z,10.64
2017-03-27T03:06:57.530Z,10.52
2017-03-27T03:07:38.125Z,10.52
2017-03-27T03:08:18.468Z,10.63
2017-03-27T03:08:58.933Z,10.61
2017-03-27T03:09:39.505Z,10.53
2017-03-27T03:10:20.017Z,10.52
2017-03-27T03:11:00.540Z,10.52
2017-03-27T03:11:41.041Z,10.55
2017-03-27T03:12:21.537Z,10.63
2017-03-27T03:13:02.022Z,10.55
2017-03-27T03:13:42.561Z,10.66
2017-03-27T03:14:22.974Z,10.67
2017-03-27T03:15:03.478Z,10.52
2017-03-27T03:15:43.959Z,10.6
2017-03-27T03:16:24.412Z,10.61
2017-03-27T03:17:04.968Z,10.63
2017-03-27T03:17:45.694Z,10.52
2017-03-27T03:18:26.205Z,10.52
2017-03-27T03:19:06.711Z,10.55
2017-03-27T03:19:47.207Z,10.52
2017-03-27T03:20:27.676Z,10.47
2017-03-27T03:21:08.206Z,10.53
2017-03-27T03:21:48.780Z,10.47
2017-03-27T03:22:29.332Z,10.29
2017-03-27T03:23:09.891Z,10.27
2017-03-27T03:23:50.382Z,10.27
2017-03-27T03:24:30.940Z,10.32
2017-03-27T03:25:11.338Z,10.15
2017-03-27T03:25:51.875Z,10.2
2017-03-27T03:26:32.325Z,10.14
2017-03-27T03:27:12.815Z,10.29
2017-03-27T03:27:53.331Z,10.32
2017-03-27T03:28:33.838Z,10.25
2017-03-27T03:29:14.305Z,10.17
2017-03-27T03:29:54.839Z,10.36
2017-03-27T03:30:35.342Z,10.36
2017-03-27T03:31:15.865Z,10.29
2017-03-27T03:31:56.348Z,10.23
2017-03-27T03:32:36.919Z,10.29
2017-03-27T03:33:17.392Z,10.34
2017-03-27T03:33:57.855Z,10.41
2017-03-27T03:34:38.320Z,10.27
2017-03-27T03:35:18.917Z,10.26
2017-03-27T03:35:59.318Z,10.2
2017-03-27T03:36:39.794Z,10.23
2017-03-27T03:37:20.231Z,10.29
2017-03-27T03:38:00.769Z,10.29
2017-03-27T03:38:41.291Z,10.3
2017-03-27T03:39:21.823Z,10.2
2017-03-27T03:40:02.276Z,10.17
2017-03-27T03:40:42.754Z,10.17
2017-03-27T03:41:23.231Z,10.23
2017-03-27T03:42:03.697Z,10.26
2017-03-27T03:42:44.169Z,10.29
2017-03-27T03:43:24.727Z,10.33
2017-03-27T03:44:05.174Z,10.4
2017-03-27T03:44:45.727Z,10.41
2017-03-27T03:45:26.197Z,10.36
2017-03-27T03:46:06.665Z,10.4
2017-03-27T03:46:47.213Z,10.29
2017-03-27T03:47:27.654Z,10.3
2017-03-27T03:48:08.137Z,10.3
2017-03-27T03:48:48.600Z,10.34
2017-03-27T03:49:29.220Z,10.3
2017-03-27T03:50:09.646Z,10.26
2017-03-27T03:50:50.180Z,10.17
2017-03-27T03:51:30.668Z,10.18
2017-03-27T03:52:11.099Z,10.3
2017-03-27T03:52:51.613Z,10.36
2017-03-27T03:53:32.061Z,10.3
2017-03-27T03:54:12.562Z,10.32
2017-03-27T03:54:53.064Z,10.3
2017-03-27T03:55:33.539Z,10.22
2017-03-27T03:56:14.076Z,10.17
2017-03-27T03:56:54.508Z,10.23
2017-03-27T03:57:35.019Z,10.26
2017-03-27T03:58:15.468Z,10.26
2017-03-27T03:58:56.000Z,10.18
2017-03-27T03:59:36.462Z,10.22
2017-03-27T04:00:17.017Z,10.18
2017-03-27T04:00:57.529Z,10.2
2017-03-27T04:01:38.064Z,10.15
2017-03-27T04:02:18.525Z,10.05
2017-03-27T04:02:58.976Z,9.96
2017-03-27T04:03:39.513Z,10.07
2017-03-27T04:04:20.035Z,10.04
2017-03-27T04:05:00.546Z,10.15
2017-03-27T04:05:40.961Z,10.17
2017-03-27T04:06:21.402Z,10.14
2017-03-27T04:07:02.029Z,10.11
2017-03-27T04:07:42.496Z,10.15
2017-03-27T04:08:22.958Z,10.18
2017-03-27T04:09:03.555Z,10.25
2017-03-27T04:09:44.129Z,10.27
2017-03-27T04:10:24.580Z,10.2
2017-03-27T04:11:05.123Z,10.3
2017-03-27T04:11:45.670Z,10.22
2017-03-27T04:12:26.139Z,10.17
2017-03-27T04:13:06.638Z,10.15
2017-03-27T04:13:47.149Z,10.2
2017-03-27T04:14:27.627Z,10.14
2017-03-27T04:15:08.198Z,10.14
2017-03-27T04:15:48.780Z,10.18
2017-03-27T04:16:29.221Z,10.11
2017-03-27T04:17:09.725Z,10.25
2017-03-27T04:17:50.242Z,10.18
2017-03-27T04:18:30.731Z,10.18
2017-03-27T04:19:11.200Z,10.18
2017-03-27T04:19:51.684Z,10.18
2017-03-27T04:20:32.172Z,10.18
2017-03-27T04:21:12.642Z,10.15
2017-03-27T04:21:53.163Z,10.15
2017-03-27T04:22:33.656Z,10.14
2017-03-27T04:23:14.196Z,10.2
2017-03-27T04:23:54.678Z,10.01
2017-03-27T04:24:35.121Z,10.09
2017-03-27T04:25:15.662Z,10.14
2017-03-27T04:25:56.143Z,10.11
2017-03-27T04:26:36.642Z,10.01
2017-03-27T04:27:17.176Z,9.99
2017-03-27T04:27:57.704Z,9.97
2017-03-27T04:28:38.160Z,9.89
2017-03-27T04:29:18.709Z,9.89
2017-03-27T04:29:59.211Z,9.87
2017-03-27T04:30:39.710Z,10.02
2017-03-27T04:31:20.227Z,9.86
2017-03-27T04:32:00.683Z,9.89
2017-03-27T04:32:41.150Z,9.75
2017-03-27T04:33:21.584Z,9.66
2017-03-27T04:34:02.107Z,9.72
2017-03-27T04:34:42.590Z,9.71
2017-03-27T04:35:23.080Z,9.76
2017-03-27T04:36:03.583Z,9.72
2017-03-27T04:36:44.104Z,9.69
2017-03-27T04:37:24.591Z,9.78
2017-03-27T04:38:05.094Z,9.64
2017-03-27T04:38:45.546Z,9.54
2017-03-27T04:39:26.074Z,9.6
2017-03-27T04:40:06.633Z,9.66
2017-03-27T04:40:47.128Z,9.65
2017-03-27T04:41:27.664Z,9.6
2017-03-27T04:42:08.194Z,9.58
2017-03-27T04:42:48.626Z,9.4
2017-03-27T04:43:29.134Z,9.33
2017-03-27T04:44:09.717Z,9.14
2017-03-27T04:44:50.128Z,9.31
2017-03-27T04:45:30.630Z,9.21
2017-03-27T04:46:11.135Z,9.05
2017-03-27T04:46:51.673Z,9.15
2017-03-27T04:47:32.168Z,9.17
2017-03-27T04:48:12.707Z,9.24
2017-03-27T04:48:53.198Z,9.39
2017-03-27T04:49:33.679Z,9.32
2017-03-27T04:50:14.178Z,9.2
2017-03-27T04:50:54.719Z,9.15
2017-03-27T04:51:35.167Z,9.14
2017-03-27T04:52:15.679Z,9.14
2017-03-27T04:52:56.153Z,9.18
2017-03-27T04:53:36.718Z,8.99
2017-03-27T04:54:17.320Z,9.02
2017-03-27T04:54:57.792Z,9.11
2017-03-27T04:55:38.285Z,9.36
2017-03-27T04:56:18.794Z,9.31
2017-03-27T04:56:59.243Z,9.33
2017-03-27T04:57:39.748Z,9.26
2017-03-27T04:58:20.281Z,9.4
2017-03-27T04:59:00.723Z,9.38
2017-03-27T04:59:41.327Z,9.26
2017-03-27T05:00:21.718Z,9.21
2017-03-27T05:01:02.230Z,9.23
2017-03-27T05:01:42.738Z,9.31
2017-03-27T05:02:23.259Z,9.26
2017-03-27T05:03:03.753Z,9.14
2017-03-27T05:03:44.372Z,9.32
2017-03-27T05:04:24.816Z,9.23
2017-03-27T05:05:05.321Z,9.38
2017-03-27T05:05:45.937Z,9.39
2017-03-27T05:06:26.294Z,9.42
2017-03-27T05:07:06.822Z,9.61
2017-03-27T05:07:47.475Z,9.65
2017-03-27T05:08:27.973Z,9.43
2017-03-27T05:09:08.610Z,9.38
2017-03-27T05:09:49.032Z,9.42
2017-03-27T05:10:29.567Z,9.39
2017-03-27T05:11:10.010Z,9.43
2017-03-27T05:11:50.588Z,9.39
2017-03-27T05:12:31.195Z,9.53
2017-03-27T05:13:11.666Z,9.51
2017-03-27T05:13:52.140Z,9.58
2017-03-27T05:14:33.594Z,9.61
2017-03-27T05:15:13.362Z,9.61
2017-03-27T05:15:53.872Z,9.54
2017-03-27T05:16:34.366Z,9.57
2017-03-27T05:17:14.851Z,9.64
2017-03-27T05:17:55.341Z,9.54
2017-03-27T05:18:35.939Z,9.39
2017-03-27T05:19:16.365Z,9.38
2017-03-27T05:19:56.895Z,9.38
2017-03-27T05:20:37.401Z,9.43
2017-03-27T05:21:17.901Z,9.29
2017-03-27T05:21:58.424Z,9.33
2017-03-27T05:22:38.959Z,9.31
2017-03-27T05:23:19.388Z,9.28
2017-03-27T05:23:59.860Z,9.26
2017-03-27T05:24:40.397Z,9.35
2017-03-27T05:25:21.029Z,9.46
2017-03-27T05:26:01.591Z,9.5
2017-03-27T05:26:42.024Z,9.47
2017-03-27T05:27:22.530Z,9.57
2017-03-27T05:28:03.099Z,9.48
2017-03-27T05:28:43.487Z,9.36
2017-03-27T05:29:24.039Z,9.32
2017-03-27T05:30:06.408Z,9.35
2017-03-27T05:30:47.129Z,9.35
2017-03-27T05:31:27.709Z,9.38
2017-03-27T05:32:08.188Z,9.42
2017-03-27T05:32:48.655Z,9.46
2017-03-27T05:33:29.126Z,9.54
2017-03-27T05:34:09.574Z,9.57
2017-03-27T05:34:50.117Z,9.57
2017-03-27T05:35:30.581Z,9.66
2017-03-27T05:36:11.067Z,9.65
2017-03-27T05:36:51.629Z,9.75
2017-03-27T05:37:32.085Z,9.6
2017-03-27T05:38:12.554Z,9.6
2017-03-27T05:38:53.068Z,9.61
2017-03-27T05:39:36.283Z,9.71
2017-03-27T05:40:16.743Z,9.75
2017-03-27T05:40:57.217Z,9.56
2017-03-27T05:41:37.750Z,9.65
2017-03-27T05:42:18.202Z,9.61
2017-03-27T05:42:58.913Z,9.75
2017-03-27T05:43:39.517Z,9.79
2017-03-27T05:44:19.927Z,9.78
2017-03-27T05:45:00.478Z,9.68
2017-03-27T05:45:40.880Z,9.69
2017-03-27T05:46:21.406Z,9.84
2017-03-27T05:47:01.867Z,9.71
2017-03-27T05:47:43.719Z,9.83
2017-03-27T05:48:24.401Z,9.71
2017-03-27T05:49:04.936Z,9.83
2017-03-27T05:49:45.485Z,9.71
2017-03-27T05:50:26.003Z,9.69
2017-03-27T05:51:06.496Z,9.64
2017-03-27T05:51:46.998Z,9.72
2017-03-27T05:52:27.477Z,9.83
2017-03-27T05:53:07.996Z,9.78
2017-03-27T05:53:48.505Z,9.76
2017-03-27T05:54:28.944Z,9.81
2017-03-27T05:55:09.450Z,9.75
2017-03-27T05:55:49.936Z,9.58
2017-03-27T05:56:30.509Z,9.57
2017-03-27T05:57:10.947Z,9.51
2017-03-27T05:57:51.412Z,9.35
2017-03-27T05:58:31.944Z,9.38
2017-03-27T05:59:12.424Z,9.31
2017-03-27T05:59:52.998Z,9.5
2017-03-27T06:00:33.592Z,9.64
2017-03-27T06:01:14.040Z,9.72
2017-03-27T06:01:54.512Z,9.81
2017-03-27T06:02:35.052Z,9.89
2017-03-27T06:03:15.525Z,9.84
2017-03-27T06:03:56.015Z,9.75
2017-03-27T06:04:36.514Z,9.87
2017-03-27T06:05:17.969Z,9.89
2017-03-27T06:05:58.467Z,9.89
2017-03-27T06:06:38.940Z,9.81
2017-03-27T06:07:19.421Z,9.87
2017-03-27T06:08:00.695Z,9.93
2017-03-27T06:08:41.151Z,9.97
2017-03-27T06:09:21.708Z,10.11
2017-03-27T06:10:02.161Z,10.09
2017-03-27T06:10:42.675Z,10.04
2017-03-27T06:11:23.168Z,10.22
2017-03-27T06:12:03.679Z,10.23
2017-03-27T06:12:44.171Z,10.32
2017-03-27T06:13:24.620Z,10.17
2017-03-27T06:14:05.090Z,9.96
2017-03-27T06:14:45.666Z,9.97
2017-03-27T06:15:26.135Z,9.99
2017-03-27T06:16:06.586Z,9.87
2017-03-27T06:16:47.116Z,9.78
2017-03-27T06:17:27.588Z,9.69
2017-03-27T06:18:08.150Z,9.71
2017-03-27T06:18:48.689Z,9.66
2017-03-27T06:19:29.159Z,9.78
2017-03-27T06:21:21.146Z,9.75
2017-03-27T06:22:11.351Z,9.87
2017-03-27T06:23:46.076Z,9.83
2017-03-27T06:24:46.337Z,10.01
2017-03-27T06:25:26.310Z,9.99
2017-03-27T06:26:06.856Z,9.79
2017-03-27T06:26:47.385Z,9.94
2017-03-27T06:27:27.826Z,10.64
2017-03-27T06:28:08.405Z,10.66
2017-03-27T06:28:48.873Z,10.94
2017-03-27T06:29:29.343Z,11.02
2017-03-27T06:30:09.964Z,11.29
2017-03-27T06:30:50.795Z,10.85
2017-03-27T06:31:31.293Z,10.56
2017-03-27T06:32:11.948Z,10.71
2017-03-27T06:32:52.476Z,10.64
2017-03-27T06:33:32.975Z,10.53
2017-03-27T06:34:13.477Z,10.25
2017-03-27T06:34:53.988Z,10.26
2017-03-27T06:35:34.434Z,10.01
2017-03-27T06:36:15.258Z,9.83
2017-03-27T06:36:55.743Z,9.83
2017-03-27T06:37:36.239Z,9.93
2017-03-27T06:38:16.908Z,10.34
2017-03-27T06:38:57.414Z,10.48
2017-03-27T06:39:38.148Z,10.52
2017-03-27T06:40:18.670Z,10.48
2017-03-27T06:40:59.188Z,10.63
2017-03-27T06:41:39.709Z,10.52
2017-03-27T06:42:20.307Z,10.41
2017-03-27T06:43:00.737Z,10.52
2017-03-27T06:43:41.235Z,10.36
2017-03-27T06:44:21.770Z,10.11
2017-03-27T06:45:02.431Z,10.48
2017-03-27T06:45:42.999Z,10.42
2017-03-27T06:46:23.581Z,10.34
2017-03-27T06:47:04.145Z,10.33
2017-03-27T06:47:44.818Z,10.48
2017-03-27T06:48:25.217Z,10.4
2017-03-27T06:49:05.661Z,10.32
2017-03-27T06:49:46.311Z,10.18
2017-03-27T06:50:26.774Z,10.22
2017-03-27T06:51:07.262Z,9.96
2017-03-27T06:51:47.778Z,9.99
2017-03-27T06:52:28.535Z,10.12
2017-03-27T06:53:09.200Z,9.89
2017-03-27T06:53:50.026Z,9.83
2017-03-27T06:54:30.550Z,9.76
2017-03-27T06:55:11.194Z,9.86
2017-03-27T06:55:51.596Z,9.78
2017-03-27T06:56:32.152Z,10.02
2017-03-27T06:57:12.597Z,10.15
2017-03-27T06:57:53.142Z,10.15
2017-03-27T06:58:33.651Z,10.23
2017-03-27T06:59:14.094Z,10.04
2017-03-27T06:59:54.614Z,10.29
2017-03-27T07:00:35.068Z,10.29
2017-03-27T07:01:15.596Z,10.41
2017-03-27T07:02:00.443Z,10.53
2017-03-27T07:02:40.427Z,10.23
2017-03-27T07:03:20.979Z,10.15
2017-03-27T07:04:01.623Z,10.11
2017-03-27T07:04:42.049Z,10.15
2017-03-27T07:05:22.531Z,10.33
2017-03-27T07:06:03.297Z,10.48
2017-03-27T07:06:43.929Z,10.79
2017-03-27T07:07:24.634Z,10.97
2017-03-27T07:08:05.221Z,11.21
2017-03-27T07:08:45.718Z,11.42
2017-03-27T07:09:26.302Z,11.67
2017-03-27T07:10:06.777Z,11.65
2017-03-27T07:10:47.300Z,11.88
2017-03-27T07:11:27.812Z,11.78
2017-03-27T07:12:08.327Z,12.04
2017-03-27T07:12:48.782Z,12.32
2017-03-27T07:13:29.619Z,12.13
2017-03-27T07:14:10.802Z,12.46
2017-03-27T07:14:51.203Z,12.62
2017-03-27T07:15:31.647Z,12.62
2017-03-27T07:16:12.111Z,12.39
2017-03-27T07:16:52.643Z,12.39
2017-03-27T07:17:33.169Z,12.62
2017-03-27T07:18:13.633Z,12.45
2017-03-27T07:18:54.120Z,12.47
2017-03-27T07:19:34.615Z,12.77
2017-03-27T07:20:15.263Z,12.67
2017-03-27T07:20:55.708Z,12.7
2017-03-27T07:21:36.131Z,12.68
2017-03-27T07:22:16.728Z,12.27
2017-03-27T07:22:57.098Z,12.05
2017-03-27T07:23:37.638Z,12.23
2017-03-27T07:24:18.153Z,12.38
2017-03-27T07:24:58.809Z,12.1
2017-03-27T07:25:39.415Z,11.67
2017-03-27T07:26:19.906Z,11.49
2017-03-27T07:27:00.492Z,11.52
2017-03-27T07:27:40.918Z,11.55
2017-03-27T07:28:21.461Z,11.72
2017-03-27T07:29:01.955Z,12.23
2017-03-27T07:29:42.550Z,11.95
2017-03-27T07:30:23.093Z,11.8
2017-03-27T07:31:03.571Z,12.12
2017-03-27T07:31:44.084Z,12.14
2017-03-27T07:32:24.664Z,12.29
2017-03-27T07:33:05.313Z,12.27
2017-03-27T07:33:45.740Z,12.29
2017-03-27T07:34:26.200Z,12.41
2017-03-27T07:35:06.780Z,12.59
2017-03-27T07:35:47.260Z,12.59
2017-03-27T07:36:27.929Z,12.54
2017-03-27T07:37:08.389Z,12.72
2017-03-27T07:37:49.035Z,12.17
2017-03-27T07:38:29.761Z,12.1
2017-03-27T07:39:10.240Z,11.98
2017-03-27T07:39:50.719Z,11.95
2017-03-27T07:40:31.222Z,12.04
2017-03-27T07:41:11.691Z,11.91
2017-03-27T07:41:52.187Z,12.01
2017-03-27T07:42:32.636Z,12.1
2017-03-27T07:43:13.370Z,12.04
2017-03-27T07:43:53.693Z,12.01
2017-03-27T07:44:34.121Z,12.05
2017-03-27T07:45:14.608Z,11.96
2017-03-27T07:45:55.120Z,12.02
2017-03-27T07:46:35.615Z,11.73
2017-03-27T07:47:16.036Z,11.75
2017-03-27T07:47:56.519Z,11.39
2017-03-27T07:48:37.082Z,11.54
2017-03-27T07:49:17.591Z,11.52
2017-03-27T07:49:58.087Z,11.51
2017-03-27T07:50:38.819Z,11.75
2017-03-27T07:51:19.513Z,11.99
2017-03-27T07:52:00.063Z,12.12
2017-03-27T07:52:40.549Z,12.13
2017-03-27T07:53:20.951Z,11.91
2017-03-27T07:54:01.549Z,11.96
2017-03-27T07:54:42.263Z,11.49
2017-03-27T07:55:23.441Z,11.22
2017-03-27T07:56:03.209Z,11.46
2017-03-27T07:56:43.672Z,11.46
2017-03-27T07:57:24.158Z,11.8
2017-03-27T07:58:04.759Z,12.27
2017-03-27T07:58:45.207Z,12.67
2017-03-27T07:59:25.690Z,12.59
2017-03-27T08:00:06.343Z,12.79
2017-03-27T08:00:46.763Z,12.74
2017-03-27T08:01:27.217Z,12.64
2017-03-27T08:02:07.836Z,12.56
2017-03-27T08:02:48.361Z,12.71
2017-03-27T08:03:28.892Z,12.96
2017-03-27T08:04:09.410Z,12.6
2017-03-27T08:04:49.880Z,12.28
2017-03-27T08:05:30.422Z,12.29
2017-03-27T08:06:10.865Z,12.39
2017-03-27T08:06:51.432Z,11.99
2017-03-27T08:07:31.970Z,11.85
2017-03-27T08:08:12.322Z,11.61
2017-03-27T08:08:52.936Z,11.67
2017-03-27T08:09:33.439Z,11.7
2017-03-27T08:10:13.886Z,12.09
2017-03-27T08:10:54.376Z,12.1
2017-03-27T08:11:34.931Z,12.07
2017-03-27T08:12:15.387Z,12.02
2017-03-27T08:12:56.009Z,12.02
2017-03-27T08:13:36.520Z,11.91
2017-03-27T08:14:17.029Z,11.99
2017-03-27T08:14:57.500Z,11.76
2017-03-27T08:15:38.407Z,11.85
2017-03-27T08:16:18.696Z,11.8
2017-03-27T08:16:59.152Z,12.02
2017-03-27T08:17:39.789Z,12.24
2017-03-27T08:18:20.256Z,12.6
2017-03-27T08:19:00.825Z,12.37
2017-03-27T08:19:41.290Z,12.39
2017-03-27T08:20:21.882Z,12.75
2017-03-27T08:21:02.315Z,12.54
2017-03-27T08:21:42.758Z,12.85
2017-03-27T08:22:23.236Z,12.72
2017-03-27T08:23:03.892Z,12.77
2017-03-27T08:23:44.413Z,12.71
2017-03-27T08:24:24.891Z,12.34
2017-03-27T08:25:05.478Z,12.12
2017-03-27T08:25:46.003Z,12.28
2017-03-27T08:26:26.417Z,12.45
2017-03-27T08:27:06.933Z,12.38
2017-03-27T08:30:12.045Z,11.96
2017-03-27T08:30:53.976Z,12.17
2017-03-27T08:31:34.538Z,12.2
2017-03-27T08:32:15.807Z,12.35
2017-03-27T08:32:55.901Z,12.45
2017-03-27T08:33:36.309Z,12.65
2017-03-27T08:34:18.141Z,12.6
2017-03-27T08:34:58.695Z,12.72
2017-03-27T08:35:39.139Z,12.83
2017-03-27T08:36:19.650Z,12.77
2017-03-27T08:37:00.227Z,12.71
2017-03-27T08:37:40.639Z,12.71
2017-03-27T08:38:21.192Z,12.67
2017-03-27T08:39:01.704Z,12.93
2017-03-27T08:39:42.129Z,12.85
2017-03-27T08:40:22.631Z,12.85
2017-03-27T08:41:03.044Z,12.77
2017-03-27T08:41:43.621Z,12.86
2017-03-27T08:42:24.095Z,12.97
2017-03-27T08:43:04.650Z,12.97
2017-03-27T08:43:45.303Z,12.83
2017-03-27T08:44:25.773Z,12.82
2017-03-27T08:45:06.275Z,12.83
2017-03-27T08:45:46.785Z,12.97
2017-03-27T08:46:27.320Z,12.83
2017-03-27T08:47:08.033Z,13.17
2017-03-27T08:47:48.351Z,13.42
2017-03-27T08:48:28.865Z,13.54
2017-03-27T08:49:13.707Z,13.79
2017-03-27T08:51:02.919Z,13.6
2017-03-27T08:51:42.072Z,13.57
2017-03-27T08:52:22.522Z,13.54
2017-03-27T08:53:03.021Z,13.28
2017-03-27T08:53:43.523Z,13.1
2017-03-27T08:54:24.117Z,12.95
2017-03-27T08:55:04.918Z,13
2017-03-27T08:55:45.300Z,13
2017-03-27T08:56:25.798Z,12.95
2017-03-27T08:57:06.378Z,13.1
2017-03-27T08:57:46.855Z,13.28
2017-03-27T08:58:27.394Z,13.14
2017-03-27T08:59:07.846Z,13
2017-03-27T08:59:48.309Z,13.01
2017-03-27T09:00:28.857Z,13.01
2017-03-27T09:01:09.315Z,13.12
2017-03-27T09:01:49.896Z,13.01
2017-03-27T09:02:30.433Z,12.96
2017-03-27T09:03:10.861Z,12.96
2017-03-27T09:03:51.357Z,13.17
2017-03-27T09:04:31.933Z,13.17
2017-03-27T09:05:12.389Z,13.11
2017-03-27T09:05:52.864Z,13.26
2017-03-27T09:06:33.396Z,13.44
2017-03-27T09:07:13.996Z,13.54